createdAt,value
2018-11-11T00:01:16.892Z,8.90
2018-11-11T00:03:47.383Z,8.80
2018-11-11T00:06:17.815Z,8.80
2018-11-11T00:09:04.964Z,8.80
2018-11-11T00:11:35.220Z,8.70
2018-11-11T00:14:05.648Z,8.70
2018-11-11T00:16:36.133Z,8.60
2018-11-11T00:19:06.800Z,8.60
2018-11-11T00:21:37.149Z,8.60
2018-11-11T00:24:07.336Z,8.50
2018-11-11T00:26:37.840Z,8.40
2018-11-11T00:29:08.596Z,8.30
2018-11-11T00:31:39.059Z,8.30
2018-11-11T00:34:09.357Z,8.30
2018-11-11T00:36:39.628Z,8.30
2018-11-11T00:39:11.287Z,8.20
2018-11-11T00:41:41.566Z,8.30
2018-11-11T00:44:11.714Z,8.30
2018-11-11T00:46:41.982Z,8.30
2018-11-11T00:49:12.197Z,8.40
2018-11-11T00:51:42.507Z,8.40
2018-11-11T00:54:12.969Z,8.30
2018-11-11T00:56:43.454Z,8.20
2018-11-11T00:59:13.738Z,8.20
2018-11-11T01:01:44.130Z,8.10
2018-11-11T01:04:14.533Z,8.10
2018-11-11T01:06:45.043Z,8.10
2018-11-11T01:09:15.351Z,8.00
2018-11-11T01:11:45.774Z,7.90
2018-11-11T01:14:16.000Z,7.70
2018-11-11T01:16:46.586Z,7.70
2018-11-11T01:19:16.924Z,7.60
2018-11-11T01:21:47.246Z,7.70
2018-11-11T01:24:17.800Z,7.70
2018-11-11T01:26:48.356Z,7.70
2018-11-11T01:29:18.616Z,7.70
2018-11-11T01:31:49.238Z,7.70
2018-11-11T01:34:19.520Z,7.70
2018-11-11T01:36:50.111Z,7.70
2018-11-11T01:39:20.462Z,7.70
2018-11-11T01:41:50.709Z,7.70
2018-11-11T01:44:20.959Z,7.70
2018-11-11T01:46:51.300Z,7.70
2018-11-11T01:49:21.474Z,7.60
2018-11-11T01:51:51.894Z,7.70
2018-11-11T01:54:22.316Z,7.70
2018-11-11T01:56:52.619Z,7.80
2018-11-11T01:59:22.899Z,7.70
2018-11-11T02:01:53.154Z,7.70
2018-11-11T02:04:23.445Z,7.70
2018-11-11T02:06:53.873Z,7.70
2018-11-11T02:09:24.246Z,7.60
2018-11-11T02:11:54.555Z,7.50
2018-11-11T02:14:24.755Z,7.50
2018-11-11T02:16:55.035Z,7.40
2018-11-11T02:19:25.243Z,7.30
2018-11-11T02:21:55.609Z,7.20
2018-11-11T02:24:25.959Z,7.10
2018-11-11T02:26:56.265Z,7.10
2018-11-11T02:29:26.632Z,7.00
2018-11-11T02:31:56.972Z,6.90
2018-11-11T02:34:27.329Z,6.90
2018-11-11T02:36:57.608Z,7.00
2018-11-11T02:39:28.056Z,7.10
2018-11-11T02:41:58.515Z,7.00
2018-11-11T02:44:28.945Z,7.00
2018-11-11T02:46:59.146Z,7.00
2018-11-11T02:49:29.620Z,7.10
2018-11-11T02:51:59.963Z,7.00
2018-11-11T02:54:30.255Z,7.00
2018-11-11T02:57:00.674Z,7.10
2018-11-11T02:59:31.057Z,7.10
2018-11-11T03:02:01.301Z,7.10
2018-11-11T03:04:31.724Z,7.10
2018-11-11T03:07:02.035Z,7.10
2018-11-11T03:09:32.421Z,7.10
2018-11-11T03:12:02.694Z,7.10
2018-11-11T03:14:33.045Z,7.10
2018-11-11T03:17:03.720Z,7.10
2018-11-11T03:19:34.217Z,7.10
2018-11-11T03:22:04.688Z,7.00
2018-11-11T03:24:34.963Z,7.10
2018-11-11T03:27:05.266Z,7.10
2018-11-11T03:29:35.696Z,7.10
2018-11-11T03:32:06.342Z,7.20
2018-11-11T03:34:36.561Z,7.10
2018-11-11T03:37:07.784Z,7.10
2018-11-11T03:39:38.711Z,7.10
2018-11-11T03:42:08.998Z,7.00
2018-11-11T03:44:39.228Z,7.00
2018-11-11T03:47:09.605Z,7.00
2018-11-11T03:49:39.960Z,7.00
2018-11-11T03:52:10.233Z,7.00
2018-11-11T03:54:40.577Z,7.00
2018-11-11T03:57:11.130Z,7.00
2018-11-11T03:59:41.391Z,7.10
2018-11-11T04:02:11.965Z,7.10
2018-11-11T04:04:42.225Z,7.10
2018-11-11T04:07:12.488Z,7.10
2018-11-11T04:09:42.793Z,7.10
2018-11-11T04:12:13.185Z,6.90
2018-11-11T04:14:43.520Z,6.80
2018-11-11T04:17:13.752Z,6.90
2018-11-11T04:19:43.983Z,6.80
2018-11-11T04:22:17.858Z,6.80
2018-11-11T04:24:50.155Z,6.80
2018-11-11T04:27:20.693Z,6.80
2018-11-11T04:29:50.882Z,6.80
2018-11-11T04:32:21.179Z,6.70
2018-11-11T04:34:51.712Z,6.70
2018-11-11T04:37:22.072Z,6.80
2018-11-11T04:39:52.260Z,6.80
2018-11-11T04:42:22.562Z,6.90
2018-11-11T04:44:53.017Z,7.00
2018-11-11T04:47:23.479Z,7.00
2018-11-11T04:49:53.647Z,7.00
2018-11-11T04:52:23.894Z,6.90
2018-11-11T04:54:54.205Z,6.80
2018-11-11T04:57:24.503Z,6.60
2018-11-11T04:59:55.039Z,6.60
2018-11-11T05:02:25.472Z,6.60
2018-11-11T05:04:55.822Z,6.50
2018-11-11T05:07:26.183Z,6.30
2018-11-11T05:09:57.793Z,6.30
2018-11-11T05:12:28.871Z,6.30
2018-11-11T05:14:59.487Z,6.40
2018-11-11T05:17:30.204Z,6.40
2018-11-11T05:20:00.611Z,6.40
2018-11-11T05:22:31.040Z,6.50
2018-11-11T05:25:01.397Z,6.50
2018-11-11T05:27:31.870Z,6.60
2018-11-11T05:30:02.482Z,6.60
2018-11-11T05:32:33.325Z,6.60
2018-11-11T05:35:03.963Z,6.60
2018-11-11T05:37:34.452Z,6.60
2018-11-11T05:40:05.069Z,6.60
2018-11-11T05:42:35.412Z,6.60
2018-11-11T05:45:06.774Z,6.70
2018-11-11T05:47:37.261Z,6.80
2018-11-11T05:50:09.150Z,6.90
2018-11-11T05:52:39.476Z,6.90
2018-11-11T05:55:10.441Z,7.00
2018-11-11T05:57:40.957Z,7.10
2018-11-11T06:00:13.927Z,7.20
2018-11-11T06:02:44.496Z,7.30
2018-11-11T06:05:15.655Z,7.40
2018-11-11T06:07:46.221Z,7.60
2018-11-11T06:10:17.330Z,7.70
2018-11-11T06:12:47.649Z,7.80
2018-11-11T06:15:17.773Z,7.90
2018-11-11T06:17:48.253Z,8.00
2018-11-11T06:20:18.877Z,8.10
2018-11-11T06:22:49.149Z,8.20
2018-11-11T06:25:19.466Z,8.30
2018-11-11T06:27:50.233Z,8.50
2018-11-11T06:30:20.648Z,8.60
2018-11-11T06:32:51.128Z,8.70
2018-11-11T06:35:21.449Z,8.90
2018-11-11T06:37:51.704Z,9.10
2018-11-11T06:40:21.977Z,9.20
2018-11-11T06:42:52.117Z,9.30
2018-11-11T06:45:22.248Z,9.50
2018-11-11T06:47:52.562Z,9.60
2018-11-11T06:50:22.959Z,9.80
2018-11-11T06:52:53.285Z,9.90
2018-11-11T06:55:23.504Z,10.00
2018-11-11T06:57:53.858Z,10.20
2018-11-11T07:00:24.432Z,10.40
2018-11-11T07:03:05.383Z,10.50
2018-11-11T07:05:35.801Z,10.50
2018-11-11T07:08:06.307Z,10.70
2018-11-11T07:10:37.106Z,10.80
2018-11-11T07:13:07.519Z,11.00
2018-11-11T07:15:37.832Z,11.10
2018-11-11T07:18:08.105Z,11.30
2018-11-11T07:20:38.555Z,11.40
2018-11-11T07:23:09.316Z,11.70
2018-11-11T07:25:39.693Z,11.80
2018-11-11T07:28:09.947Z,11.90
2018-11-11T07:30:40.520Z,12.10
2018-11-11T07:33:11.086Z,12.40
2018-11-11T07:35:41.980Z,12.60
2018-11-11T07:38:12.292Z,12.90
2018-11-11T07:40:42.704Z,13.10
2018-11-11T07:43:13.060Z,13.30
2018-11-11T07:45:43.311Z,13.50
2018-11-11T07:48:13.733Z,13.70
2018-11-11T07:50:44.065Z,13.70
2018-11-11T07:53:15.041Z,13.80
2018-11-11T07:55:45.521Z,13.90
2018-11-11T07:58:16.084Z,14.00
2018-11-11T08:00:46.523Z,14.10
2018-11-11T08:03:17.223Z,14.20
2018-11-11T08:05:47.492Z,14.40
2018-11-11T08:08:17.737Z,14.50
2018-11-11T08:10:59.223Z,14.70
2018-11-11T08:13:29.538Z,14.90
2018-11-11T08:15:59.837Z,14.70
2018-11-11T08:18:30.068Z,14.70
2018-11-11T08:21:00.368Z,14.90
2018-11-11T08:23:30.932Z,15.00
2018-11-11T08:26:01.204Z,15.00
2018-11-11T08:28:32.073Z,14.90
2018-11-11T08:31:02.975Z,14.80
2018-11-11T08:33:33.147Z,14.90
2018-11-11T08:36:03.730Z,15.10
2018-11-11T08:38:34.009Z,15.20
2018-11-11T08:41:04.437Z,15.10
2018-11-11T08:43:34.970Z,15.30
2018-11-11T08:46:05.498Z,15.50
2018-11-11T08:48:36.485Z,15.60
2018-11-11T08:51:07.266Z,15.50
2018-11-11T08:53:37.997Z,15.60
2018-11-11T08:56:08.264Z,15.90
2018-11-11T08:58:38.865Z,15.90
2018-11-11T09:01:09.117Z,15.90
2018-11-11T09:03:40.098Z,16.00
2018-11-11T09:06:10.321Z,15.90
2018-11-11T09:08:40.593Z,15.90
2018-11-11T09:11:11.083Z,16.00
2018-11-11T09:13:41.271Z,16.00
2018-11-11T09:16:11.610Z,16.10
2018-11-11T09:18:42.125Z,16.20
2018-11-11T09:21:12.515Z,16.30
2018-11-11T09:23:42.842Z,16.40
2018-11-11T09:26:13.036Z,16.60
2018-11-11T09:28:43.714Z,16.70
2018-11-11T09:31:14.010Z,16.60
2018-11-11T09:33:44.219Z,16.40
2018-11-11T09:36:14.663Z,16.40
2018-11-11T09:38:45.047Z,16.60
2018-11-11T09:41:15.826Z,16.70
2018-11-11T09:43:46.063Z,16.80
2018-11-11T09:46:18.553Z,16.90
2018-11-11T09:48:50.001Z,16.90
2018-11-11T09:51:20.267Z,17.00
2018-11-11T09:53:50.554Z,17.10
2018-11-11T09:56:20.804Z,17.10
2018-11-11T09:58:51.272Z,17.10
2018-11-11T10:01:22.800Z,17.10
2018-11-11T10:04:00.023Z,17.20
2018-11-11T10:06:52.541Z,17.30
2018-11-11T10:09:44.410Z,17.30
2018-11-11T10:13:26.571Z,17.40
2018-11-11T10:16:01.418Z,17.40
2018-11-11T10:18:39.012Z,17.40
2018-11-11T10:23:18.138Z,17.50
2018-11-11T10:25:59.633Z,17.80
2018-11-11T10:28:34.878Z,17.80
2018-11-11T10:31:14.629Z,17.70
2018-11-11T10:33:48.814Z,17.80
2018-11-11T10:36:25.461Z,17.70
2018-11-11T10:38:59.923Z,17.80
2018-11-11T10:41:38.069Z,17.80
2018-11-11T10:44:26.954Z,17.80
2018-11-11T10:47:02.464Z,17.80
2018-11-11T10:49:51.000Z,18.00
2018-11-11T10:52:22.132Z,18.30
2018-11-11T10:54:52.526Z,18.50
2018-11-11T10:57:23.221Z,18.50
2018-11-11T10:59:53.456Z,18.30
2018-11-11T11:02:32.549Z,18.30
2018-11-11T11:05:07.800Z,18.20
2018-11-11T11:07:38.549Z,18.30
2018-11-11T11:10:09.243Z,18.30
2018-11-11T11:12:39.569Z,18.30
2018-11-11T11:15:10.959Z,18.30
2018-11-11T11:17:41.550Z,18.30
2018-11-11T11:20:11.987Z,18.10
2018-11-11T11:22:42.342Z,18.00
2018-11-11T11:25:13.424Z,18.00
2018-11-11T11:27:43.604Z,18.00
2018-11-11T11:30:14.715Z,18.10
2018-11-11T11:32:44.915Z,17.90
2018-11-11T11:35:15.542Z,18.00
2018-11-11T11:37:46.050Z,18.10
2018-11-11T11:40:16.849Z,18.30
2018-11-11T11:42:47.096Z,18.20
2018-11-11T11:45:17.463Z,18.40
2018-11-11T11:47:47.651Z,18.50
2018-11-11T11:50:18.328Z,18.60
2018-11-11T11:52:48.758Z,18.80
2018-11-11T11:55:19.287Z,18.80
2018-11-11T11:58:00.655Z,18.80
2018-11-11T12:00:31.037Z,18.80
2018-11-11T12:03:01.781Z,18.80
2018-11-11T12:05:32.110Z,18.70
2018-11-11T12:08:02.788Z,18.70
2018-11-11T12:10:33.240Z,18.60
2018-11-11T12:13:03.940Z,18.60
2018-11-11T12:15:34.299Z,18.60
2018-11-11T12:18:04.650Z,18.50
2018-11-11T12:20:34.958Z,18.50
2018-11-11T12:23:05.442Z,18.50
2018-11-11T12:25:36.244Z,18.50
2018-11-11T12:28:06.859Z,18.40
2018-11-11T12:30:37.231Z,18.30
2018-11-11T12:33:07.850Z,18.30
2018-11-11T12:35:38.158Z,18.30
2018-11-11T12:38:08.703Z,18.20
2018-11-11T12:40:39.135Z,18.20
2018-11-11T12:43:09.552Z,18.20
2018-11-11T12:45:39.751Z,18.30
2018-11-11T12:48:10.038Z,18.20
2018-11-11T12:50:40.718Z,18.30
2018-11-11T12:53:11.161Z,18.30
2018-11-11T12:55:41.429Z,18.10
2018-11-11T12:58:11.665Z,18.10
2018-11-11T13:00:42.204Z,18.10
2018-11-11T13:03:12.520Z,18.00
2018-11-11T13:05:42.744Z,18.00
2018-11-11T13:08:13.268Z,17.90
2018-11-11T13:10:43.568Z,17.90
2018-11-11T13:13:13.907Z,18.00
2018-11-11T13:15:44.255Z,18.00
2018-11-11T13:18:14.687Z,18.00
2018-11-11T13:20:44.968Z,18.10
2018-11-11T13:23:15.355Z,18.20
2018-11-11T13:25:45.676Z,18.10
2018-11-11T13:28:18.014Z,18.10
2018-11-11T13:30:49.481Z,18.10
2018-11-11T13:33:22.464Z,18.10
2018-11-11T13:35:56.170Z,18.20
2018-11-11T13:38:33.806Z,18.20
2018-11-11T13:41:07.761Z,18.10
2018-11-11T13:43:41.872Z,18.10
2018-11-11T13:46:17.195Z,18.10
2018-11-11T13:48:52.856Z,18.10
2018-11-11T13:51:23.758Z,18.10
2018-11-11T13:53:54.106Z,18.00
2018-11-11T13:56:24.285Z,18.00
2018-11-11T13:58:54.675Z,17.90
2018-11-11T14:01:24.892Z,17.90
2018-11-11T14:03:55.112Z,17.90
2018-11-11T14:06:25.528Z,17.70
2018-11-11T14:08:55.904Z,17.50
2018-11-11T14:11:26.258Z,17.40
2018-11-11T14:13:58.432Z,17.20
2018-11-11T14:16:29.553Z,17.10
2018-11-11T14:19:00.082Z,17.00
2018-11-11T14:21:30.377Z,16.90
2018-11-11T14:24:01.352Z,16.80
2018-11-11T14:26:31.631Z,16.70
2018-11-11T14:29:01.853Z,16.60
2018-11-11T14:31:32.450Z,16.60
2018-11-11T14:34:03.466Z,16.50
2018-11-11T14:36:33.847Z,16.40
2018-11-11T14:39:05.080Z,16.20
2018-11-11T14:41:35.379Z,16.00
2018-11-11T14:44:06.099Z,15.90
2018-11-11T14:46:36.580Z,15.70
2018-11-11T14:49:07.878Z,15.60
2018-11-11T14:51:38.564Z,15.50
2018-11-11T14:54:08.908Z,15.40
2018-11-11T14:56:39.212Z,15.30
2018-11-11T14:59:09.685Z,15.20
2018-11-11T15:01:40.044Z,15.10
2018-11-11T15:04:10.490Z,15.00
2018-11-11T15:06:40.760Z,14.80
2018-11-11T15:09:12.901Z,14.70
2018-11-11T15:11:43.155Z,14.70
2018-11-11T15:14:13.726Z,14.50
2018-11-11T15:16:44.283Z,14.50
2018-11-11T15:19:14.963Z,14.50
2018-11-11T15:21:45.240Z,14.60
2018-11-11T15:24:21.736Z,14.50
2018-11-11T15:26:52.349Z,14.30
2018-11-11T15:29:22.667Z,14.20
2018-11-11T15:31:53.406Z,14.10
2018-11-11T15:34:23.615Z,14.00
2018-11-11T15:36:53.983Z,14.00
2018-11-11T15:39:24.322Z,13.90
2018-11-11T15:41:54.703Z,13.80
2018-11-11T15:44:25.109Z,13.80
2018-11-11T15:46:55.530Z,13.70
2018-11-11T15:49:25.720Z,13.70
2018-11-11T15:51:56.175Z,13.70
2018-11-11T15:54:26.450Z,13.70
2018-11-11T15:56:56.634Z,13.50
2018-11-11T15:59:26.958Z,13.40
2018-11-11T16:01:57.873Z,13.40
2018-11-11T16:04:28.219Z,13.40
2018-11-11T16:06:58.771Z,13.40
2018-11-11T16:09:29.061Z,13.30
2018-11-11T16:11:59.582Z,13.20
2018-11-11T16:14:30.449Z,13.20
2018-11-11T16:17:01.017Z,13.10
2018-11-11T16:19:31.532Z,13.00
2018-11-11T16:22:01.816Z,12.90
2018-11-11T16:24:32.050Z,12.80
2018-11-11T16:27:02.303Z,12.70
2018-11-11T16:29:32.916Z,12.60
2018-11-11T16:32:03.603Z,12.40
2018-11-11T16:34:33.956Z,12.30
2018-11-11T16:37:04.233Z,12.30
2018-11-11T16:39:35.117Z,12.20
2018-11-11T16:42:06.230Z,12.20
2018-11-11T16:44:36.982Z,12.20
2018-11-11T16:47:08.381Z,12.10
2018-11-11T16:49:39.422Z,12.10
2018-11-11T16:52:10.692Z,12.10
2018-11-11T16:57:41.320Z,11.90
2018-11-11T17:00:18.117Z,11.90
2018-11-11T17:02:49.064Z,11.80
2018-11-11T17:05:21.053Z,11.70
2018-11-11T17:07:51.731Z,11.70
2018-11-11T17:10:23.519Z,11.70
2018-11-11T17:12:56.404Z,11.70
2018-11-11T17:15:28.205Z,11.70
2018-11-11T17:17:59.207Z,11.70
2018-11-11T17:20:29.960Z,11.70
2018-11-11T17:23:02.322Z,11.60
2018-11-11T17:25:33.806Z,11.60
2018-11-11T17:28:05.848Z,11.60
2018-11-11T17:30:36.833Z,11.60
2018-11-11T17:33:11.489Z,11.60
2018-11-11T17:35:42.774Z,11.60
2018-11-11T17:38:14.516Z,11.50
2018-11-11T17:40:46.362Z,11.40
2018-11-11T17:43:18.278Z,11.50
2018-11-11T17:45:50.712Z,11.40
2018-11-11T17:48:23.614Z,11.40
2018-11-11T17:50:55.847Z,11.40
2018-11-11T17:53:28.685Z,11.40
2018-11-11T17:56:01.757Z,11.50
2018-11-11T17:58:34.191Z,11.50
2018-11-11T18:01:06.485Z,11.50
2018-11-11T18:03:42.045Z,11.50
2018-11-11T18:06:14.824Z,11.50
2018-11-11T18:08:51.044Z,11.60
2018-11-11T18:11:23.360Z,11.50
2018-11-11T18:13:55.754Z,11.40
2018-11-11T18:16:31.203Z,11.40
2018-11-11T18:19:03.681Z,11.40
2018-11-11T18:21:35.946Z,11.30
2018-11-11T18:24:10.242Z,11.20
2018-11-11T18:26:43.055Z,11.20
2018-11-11T18:29:15.315Z,11.10
2018-11-11T18:31:47.595Z,11.10
2018-11-11T18:34:20.198Z,11.00
2018-11-11T18:36:52.797Z,11.00
2018-11-11T18:39:26.447Z,10.90
2018-11-11T18:41:59.043Z,10.90
2018-11-11T18:44:31.590Z,10.80
2018-11-11T18:47:03.770Z,10.80
2018-11-11T18:49:36.961Z,10.70
2018-11-11T18:52:09.414Z,10.70
2018-11-11T18:54:41.749Z,10.60
2018-11-11T18:57:14.114Z,10.50
2018-11-11T18:59:46.570Z,10.40
2018-11-11T19:02:19.610Z,10.40
2018-11-11T19:04:52.027Z,10.40
2018-11-11T19:07:25.192Z,10.40
2018-11-11T19:09:57.719Z,10.30
2018-11-11T19:12:31.223Z,10.20
2018-11-11T19:15:03.488Z,10.10
2018-11-11T19:17:36.319Z,10.10
2018-11-11T19:20:10.941Z,10.00
2018-11-11T19:22:43.750Z,10.00
2018-11-11T19:25:18.850Z,10.10
2018-11-11T19:27:52.336Z,10.10
2018-11-11T19:30:26.168Z,10.00
2018-11-11T19:32:58.713Z,10.00
2018-11-11T19:35:30.982Z,10.10
2018-11-11T19:38:03.195Z,10.00
2018-11-11T19:40:35.757Z,10.00
2018-11-11T19:43:08.124Z,10.00
2018-11-11T19:45:41.479Z,9.90
2018-11-11T19:48:13.955Z,9.90
2018-11-11T19:50:46.319Z,9.90
2018-11-11T19:53:18.770Z,9.90
2018-11-11T19:55:50.967Z,9.90
2018-11-11T19:58:23.243Z,9.90
2018-11-11T20:00:55.765Z,9.80
2018-11-11T20:03:28.200Z,9.80
2018-11-11T20:06:00.421Z,9.80
2018-11-11T20:08:32.422Z,9.80
2018-11-11T20:11:04.524Z,9.70
2018-11-11T20:13:36.968Z,9.70
2018-11-11T20:16:08.833Z,9.70
2018-11-11T20:18:40.534Z,9.70
2018-11-11T20:21:12.572Z,9.60
2018-11-11T20:23:43.988Z,9.60
2018-11-11T20:26:15.142Z,9.60
2018-11-11T20:28:46.169Z,9.60
2018-11-11T20:31:20.590Z,9.50
2018-11-11T20:33:51.557Z,9.60
2018-11-11T20:36:22.094Z,9.50
2018-11-11T20:38:52.379Z,9.50
2018-11-11T20:41:22.780Z,9.50
2018-11-11T20:43:53.162Z,9.50
2018-11-11T20:46:23.646Z,9.50
2018-11-11T20:48:53.920Z,9.50
2018-11-11T20:51:24.108Z,9.40
2018-11-11T20:53:54.374Z,9.40
2018-11-11T20:56:24.863Z,9.40
2018-11-11T20:58:55.246Z,9.50
2018-11-11T21:01:26.153Z,9.50
2018-11-11T21:03:57.023Z,9.50
2018-11-11T21:06:27.316Z,9.50
2018-11-11T21:08:57.776Z,9.50
2018-11-11T21:11:28.322Z,9.50
2018-11-11T21:13:58.686Z,9.50
2018-11-11T21:16:29.222Z,9.40
2018-11-11T21:18:59.428Z,9.40
2018-11-11T21:21:29.943Z,9.40
2018-11-11T21:24:00.337Z,9.30
2018-11-11T21:26:30.755Z,9.30
2018-11-11T21:29:00.975Z,9.30
2018-11-11T21:31:31.321Z,9.20
2018-11-11T21:34:01.801Z,9.20
2018-11-11T21:36:32.532Z,9.20
2018-11-11T21:39:03.232Z,9.20
2018-11-11T21:41:33.682Z,9.20
2018-11-11T21:44:04.260Z,9.20
2018-11-11T21:46:34.492Z,9.10
2018-11-11T21:49:04.903Z,9.10
2018-11-11T21:51:35.054Z,9.00
2018-11-11T21:54:05.418Z,9.00
2018-11-11T21:56:35.704Z,9.00
2018-11-11T21:59:06.085Z,9.00
2018-11-11T22:01:36.491Z,8.90
2018-11-11T22:04:06.931Z,8.90
2018-11-11T22:06:37.252Z,8.90
2018-11-11T22:09:09.584Z,8.90
2018-11-11T22:11:39.880Z,8.80
2018-11-11T22:14:10.160Z,8.80
2018-11-11T22:16:40.551Z,8.90
2018-11-11T22:19:11.490Z,8.90
2018-11-11T22:21:42.107Z,8.90
2018-11-11T22:24:12.512Z,8.90
2018-11-11T22:26:42.803Z,8.90
2018-11-11T22:29:13.087Z,9.00
2018-11-11T22:31:43.381Z,9.00
2018-11-11T22:34:13.727Z,9.00
2018-11-11T22:36:44.200Z,8.90
2018-11-11T22:39:14.367Z,8.90
2018-11-11T22:41:44.818Z,8.90
2018-11-11T22:44:15.272Z,8.80
2018-11-11T22:46:45.856Z,8.80
2018-11-11T22:49:16.136Z,8.70
2018-11-11T22:51:46.559Z,8.70
2018-11-11T22:54:16.905Z,8.60
2018-11-11T22:56:47.163Z,8.60
2018-11-11T22:59:17.947Z,8.50
2018-11-11T23:01:48.195Z,8.40
2018-11-11T23:04:18.606Z,8.30
2018-11-11T23:06:49.014Z,8.30
2018-11-11T23:09:19.189Z,8.30
2018-11-11T23:11:49.467Z,8.30
2018-11-11T23:14:19.873Z,8.30
2018-11-11T23:16:50.378Z,8.20
2018-11-11T23:19:20.721Z,8.20
2018-11-11T23:21:51.047Z,8.10
2018-11-11T23:24:21.362Z,8.00
2018-11-11T23:26:51.844Z,8.00
2018-11-11T23:29:22.060Z,8.10
2018-11-11T23:31:52.433Z,8.20
2018-11-11T23:34:22.997Z,8.20
2018-11-11T23:36:53.395Z,8.10
2018-11-11T23:39:23.804Z,8.00
2018-11-11T23:41:54.046Z,7.90
2018-11-11T23:44:24.299Z,7.90
2018-11-11T23:46:54.591Z,8.00
2018-11-11T23:49:24.850Z,7.90
2018-11-11T23:51:55.251Z,7.90
2018-11-11T23:54:25.510Z,7.80
2018-11-11T23:56:56.107Z,7.80
2018-11-11T23:59:26.431Z,7.80
